Time;durP1;ratioP1;P1;durP2;ratioP2;P2;SDS_P1;SDS_P2;PMS_P1;PMS_P2;Temp;Humidity;BMP_temperature;BMP_pressure;BME280_temperature;BME280_humidity;BME280_pressure;Samples;Min_cycle;Max_cycle;Signal;HPM_P1;HPM_P2
2024/01/12 00:01:29;;;;;;;62.13;55.60;;;9.80;99.90;;;;;;5025800;28;20582;-61
2024/01/12 00:03:55;;;;;;;57.55;51.40;;;9.60;99.90;;;;;;5044950;28;20057;-61
2024/01/12 00:06:20;;;;;;;58.05;51.05;;;9.60;99.90;;;;;;5046549;28;20136;-61
2024/01/12 00:08:46;;;;;;;55.08;49.28;;;9.80;99.90;;;;;;5046123;28;20043;-61
2024/01/12 00:11:12;;;;;;;61.13;50.92;;;9.80;99.90;;;;;;5046509;28;20102;-61
2024/01/12 00:13:38;;;;;;;64.80;51.22;;;9.80;99.90;;;;;;5046459;28;20548;-61
2024/01/12 00:16:07;;;;;;;60.17;48.38;;;9.90;99.90;;;;;;5046473;28;20041;-61
2024/01/12 00:18:33;;;;;;;65.03;54.40;;;9.70;99.90;;;;;;5061199;28;20120;-62
2024/01/12 00:20:59;;;;;;;53.78;48.17;;;9.70;99.90;;;;;;5046253;28;20406;-62
2024/01/12 00:23:24;;;;;;;55.72;49.67;;;9.70;99.90;;;;;;5046299;28;20043;-61
2024/01/12 00:25:50;;;;;;;55.42;46.00;;;9.80;99.90;;;;;;5046611;28;20041;-62
2024/01/12 00:28:16;;;;;;;55.75;49.25;;;9.60;99.90;;;;;;5046248;28;20043;-62
2024/01/12 00:30:41;;;;;;;57.15;51.22;;;9.80;99.90;;;;;;5043903;28;20047;-61
2024/01/12 00:33:07;;;;;;;58.80;52.90;;;9.70;99.90;;;;;;5045866;28;20094;-60
2024/01/12 00:35:33;;;;;;;58.97;52.83;;;9.70;99.90;;;;;;5046092;28;20510;-61
2024/01/12 00:37:58;;;;;;;59.58;53.75;;;9.80;99.90;;;;;;5045946;28;20549;-60
2024/01/12 00:40:24;;;;;;;58.72;52.45;;;9.60;99.90;;;;;;5046629;28;20382;-60
2024/01/12 00:42:50;;;;;;;62.40;55.22;;;9.80;99.90;;;;;;5045911;28;20066;-61
2024/01/12 00:45:16;;;;;;;53.58;48.17;;;9.70;99.90;;;;;;5046216;28;20140;-61
2024/01/12 00:47:42;;;;;;;59.15;53.03;;;9.50;99.90;;;;;;5046320;28;20075;-60
2024/01/12 00:50:08;;;;;;;59.22;49.00;;;9.50;99.90;;;;;;5046106;28;20203;-63
2024/01/12 00:52:34;;;;;;;62.25;54.05;;;9.40;99.90;;;;;;5045058;28;20036;-61
2024/01/12 00:55:00;;;;;;;55.65;49.67;;;9.60;99.90;;;;;;5045937;28;20047;-62
2024/01/12 00:57:26;;;;;;;68.20;56.60;;;9.30;99.90;;;;;;5046216;28;20041;-61
2024/01/12 00:59:51;;;;;;;58.55;51.90;;;9.30;99.90;;;;;;5043995;28;20059;-61
2024/01/12 01:02:17;;;;;;;61.47;55.40;;;9.60;99.90;;;;;;5045066;28;20052;-61
2024/01/12 01:04:42;;;;;;;62.30;55.65;;;9.60;99.90;;;;;;5045543;28;20043;-61
2024/01/12 01:07:08;;;;;;;64.22;57.70;;;9.50;99.90;;;;;;5045557;28;20565;-61
2024/01/12 01:09:33;;;;;;;71.85;61.80;;;9.40;99.90;;;;;;5045556;28;20347;-61
2024/01/12 01:11:59;;;;;;;64.47;57.63;;;9.40;99.90;;;;;;5046374;28;20068;-61
2024/01/12 01:14:25;;;;;;;63.03;54.45;;;9.30;99.90;;;;;;5045817;28;20490;-61
2024/01/12 01:16:51;;;;;;;65.88;58.88;;;9.50;99.90;;;;;;5045369;28;20505;-62
2024/01/12 01:19:17;;;;;;;69.65;62.10;;;9.20;99.90;;;;;;5044307;28;20055;-62
2024/01/12 01:21:43;;;;;;;69.13;62.08;;;9.10;99.90;;;;;;5045531;28;20048;-61
2024/01/12 01:24:08;;;;;;;84.97;76.50;;;9.30;99.90;;;;;;5045536;28;20520;-62
2024/01/12 01:26:34;;;;;;;68.07;60.47;;;9.00;99.90;;;;;;5045645;28;20047;-63
2024/01/12 01:28:59;;;;;;;67.57;60.50;;;9.10;99.90;;;;;;5060692;28;20417;-61
2024/01/12 01:31:25;;;;;;;74.70;67.18;;;9.10;99.90;;;;;;5049020;28;20423;-61
2024/01/12 01:33:51;;;;;;;68.68;61.33;;;9.20;99.90;;;;;;5047485;28;20037;-61
2024/01/12 01:36:16;;;;;;;65.20;58.17;;;8.90;99.90;;;;;;5048672;28;20107;-62
2024/01/12 01:38:42;;;;;;;65.90;58.40;;;9.00;99.90;;;;;;5049258;28;20068;-62
2024/01/12 01:41:07;;;;;;;66.38;59.20;;;8.90;99.90;;;;;;5049271;28;20041;-62
2024/01/12 01:43:33;;;;;;;70.57;63.47;;;8.80;99.90;;;;;;5049209;28;20509;-61
2024/01/12 01:46:00;;;;;;;76.40;63.97;;;9.10;99.90;;;;;;5048243;28;20132;-61
2024/01/12 01:48:26;;;;;;;73.03;65.40;;;8.90;99.90;;;;;;5049592;28;20045;-61
2024/01/12 01:50:52;;;;;;;76.15;65.10;;;8.90;99.90;;;;;;5049199;28;20043;-61
2024/01/12 01:53:19;;;;;;;70.20;63.17;;;9.00;99.90;;;;;;5049003;28;20495;-62
2024/01/12 01:55:45;;;;;;;72.18;60.97;;;9.00;99.90;;;;;;5049425;28;20527;-61
2024/01/12 01:58:11;;;;;;;69.60;59.33;;;9.00;99.90;;;;;;5049556;28;20041;-61
2024/01/12 02:00:38;;;;;;;70.15;62.63;;;9.10;99.90;;;;;;5031741;28;20804;-61
2024/01/12 02:03:04;;;;;;;73.72;60.40;;;9.00;99.90;;;;;;5048974;28;20064;-62
2024/01/12 02:05:30;;;;;;;70.07;62.85;;;9.20;99.90;;;;;;5047263;28;20068;-61
2024/01/12 02:07:57;;;;;;;71.10;63.60;;;9.00;99.90;;;;;;5047805;28;20041;-61
2024/01/12 02:10:23;;;;;;;73.10;65.72;;;9.20;99.90;;;;;;5048867;28;20127;-60
2024/01/12 02:12:48;;;;;;;73.28;64.75;;;9.20;99.90;;;;;;5048566;28;20067;-60
2024/01/12 02:15:14;;;;;;;70.45;58.10;;;9.00;99.90;;;;;;5048569;28;20415;-62
2024/01/12 02:17:41;;;;;;;68.53;59.13;;;9.30;99.90;;;;;;5048734;28;20051;-62
2024/01/12 02:20:07;;;;;;;72.82;61.58;;;9.30;99.90;;;;;;5048452;28;20522;-62
2024/01/12 02:22:33;;;;;;;67.07;58.63;;;9.20;99.90;;;;;;5047382;28;20506;-61
2024/01/12 02:24:59;;;;;;;69.15;61.90;;;9.30;99.90;;;;;;5048289;28;20055;-62
2024/01/12 02:27:25;;;;;;;66.50;59.30;;;9.30;99.90;;;;;;5048650;28;20127;-61
2024/01/12 02:29:52;;;;;;;71.28;63.75;;;9.30;99.90;;;;;;5048661;28;20558;-62
2024/01/12 02:32:17;;;;;;;68.85;60.08;;;9.40;99.90;;;;;;5048240;28;20406;-61
2024/01/12 02:34:43;;;;;;;70.95;63.83;;;9.10;99.90;;;;;;5048393;28;20056;-62
2024/01/12 02:37:08;;;;;;;71.57;63.83;;;9.20;99.90;;;;;;5048470;28;20044;-61
2024/01/12 02:39:34;;;;;;;69.38;61.97;;;9.40;99.90;;;;;;5047884;28;20402;-60
2024/01/12 02:41:59;;;;;;;68.50;56.63;;;9.20;99.90;;;;;;5046711;28;20036;-61
2024/01/12 02:44:25;;;;;;;74.63;58.67;;;9.20;99.90;;;;;;5047125;28;20041;-60
2024/01/12 02:46:51;;;;;;;67.07;57.92;;;9.10;99.90;;;;;;5048016;28;20218;-61
2024/01/12 02:49:16;;;;;;;69.75;59.95;;;9.20;99.90;;;;;;5047861;28;20048;-61
2024/01/12 02:51:42;;;;;;;81.25;60.67;;;9.20;99.90;;;;;;5045673;28;20487;-61
2024/01/12 02:54:08;;;;;;;77.55;59.75;;;9.20;99.90;;;;;;5046181;28;20041;-62
2024/01/12 02:56:35;;;;;;;71.15;56.92;;;9.30;99.90;;;;;;5040517;28;20052;-62
2024/01/12 02:59:00;;;;;;;72.22;59.72;;;9.00;99.90;;;;;;5043853;28;20159;-62
2024/01/12 03:01:27;;;;;;;72.03;59.42;;;9.20;99.90;;;;;;5026651;28;20203;-62
2024/01/12 03:03:53;;;;;;;69.68;59.10;;;9.00;99.90;;;;;;5045588;28;20049;-61
2024/01/12 03:06:18;;;;;;;68.25;55.97;;;9.20;99.90;;;;;;5046652;28;20044;-61
2024/01/12 03:08:44;;;;;;;70.05;58.97;;;9.00;99.90;;;;;;5045672;28;20558;-63
2024/01/12 03:11:09;;;;;;;62.38;55.75;;;9.10;99.90;;;;;;5062219;28;20495;-61
2024/01/12 03:13:35;;;;;;;61.63;55.20;;;8.90;99.90;;;;;;5045945;28;20521;-63
2024/01/12 03:16:01;;;;;;;67.60;53.92;;;9.10;99.90;;;;;;5046936;28;20044;-61
2024/01/12 03:18:27;;;;;;;70.65;54.25;;;9.00;99.90;;;;;;5046283;28;20111;-60
2024/01/12 03:20:53;;;;;;;63.05;52.72;;;8.90;99.90;;;;;;5046644;28;20041;-60
2024/01/12 03:23:18;;;;;;;62.58;55.33;;;9.60;99.90;;;;;;5045876;28;20041;-62
2024/01/12 03:25:44;;;;;;;75.65;59.25;;;8.80;99.90;;;;;;5046511;28;20582;-62
2024/01/12 03:28:09;;;;;;;76.82;62.47;;;8.80;99.90;;;;;;5045535;28;20521;-61
2024/01/12 03:30:35;;;;;;;73.95;59.55;;;8.80;99.90;;;;;;5046401;28;20508;-62
2024/01/12 03:33:01;;;;;;;72.03;63.75;;;8.90;99.90;;;;;;5046531;28;20133;-61
2024/01/12 03:35:26;;;;;;;76.82;61.97;;;8.90;99.90;;;;;;5046236;28;20055;-62
2024/01/12 03:37:52;;;;;;;63.78;57.13;;;8.80;99.90;;;;;;5046350;28;20503;-61
2024/01/12 03:40:18;;;;;;;63.65;56.45;;;8.70;99.90;;;;;;5046335;28;20052;-61
2024/01/12 03:42:43;;;;;;;64.22;57.42;;;8.80;99.90;;;;;;5045380;28;20071;-63
2024/01/12 03:45:09;;;;;;;63.78;56.40;;;8.90;99.90;;;;;;5046524;28;20049;-61
2024/01/12 03:47:35;;;;;;;72.22;56.13;;;8.70;99.90;;;;;;5046395;28;20047;-60
2024/01/12 03:50:00;;;;;;;64.45;53.50;;;8.80;99.90;;;;;;5045996;28;20037;-62
2024/01/12 03:52:26;;;;;;;63.03;56.10;;;8.80;99.90;;;;;;5045299;28;20047;-60
2024/01/12 03:54:51;;;;;;;73.35;56.92;;;8.70;99.90;;;;;;5044524;28;20115;-61
2024/01/12 03:57:17;;;;;;;72.20;58.80;;;8.70;99.90;;;;;;5045151;28;20118;-61
2024/01/12 03:59:42;;;;;;;68.28;60.00;;;8.50;99.90;;;;;;5046230;28;20421;-61
2024/01/12 04:02:08;;;;;;;76.88;58.00;;;8.70;99.90;;;;;;5045488;28;20056;-61
2024/01/12 04:04:33;;;;;;;86.45;57.55;;;8.10;99.90;;;;;;5044978;28;20072;-61
2024/01/12 04:06:59;;;;;;;79.72;61.08;;;8.60;99.90;;;;;;5044310;28;20049;-61
2024/01/12 04:09:25;;;;;;;67.10;59.75;;;8.70;99.90;;;;;;5045912;28;20065;-62
2024/01/12 04:11:51;;;;;;;67.65;55.13;;;8.90;99.90;;;;;;5045347;28;20154;-61
2024/01/12 04:14:16;;;;;;;79.38;57.08;;;8.90;99.90;;;;;;5046749;28;20491;-61
2024/01/12 04:16:42;;;;;;;67.70;58.03;;;8.90;99.90;;;;;;5047316;28;20044;-61
2024/01/12 04:19:07;;;;;;;62.40;55.58;;;8.80;99.90;;;;;;5047696;28;20111;-61
2024/01/12 04:21:33;;;;;;;64.75;57.45;;;8.70;99.90;;;;;;5046831;28;20041;-61
2024/01/12 04:24:00;;;;;;;71.32;57.70;;;8.70;99.90;;;;;;5046354;28;20037;-60
2024/01/12 04:26:25;;;;;;;66.93;54.22;;;8.70;99.90;;;;;;5046513;28;20041;-61
2024/01/12 04:28:51;;;;;;;71.60;53.40;;;8.80;99.90;;;;;;5045486;28;20041;-61
2024/01/12 04:31:16;;;;;;;72.80;58.08;;;8.90;99.90;;;;;;5045505;28;20558;-61
2024/01/12 04:33:42;;;;;;;67.28;60.00;;;8.80;99.90;;;;;;5046286;28;20598;-61
2024/01/12 04:36:08;;;;;;;71.68;59.25;;;9.00;99.90;;;;;;5046014;28;20048;-62
2024/01/12 04:38:33;;;;;;;77.72;60.20;;;9.10;99.90;;;;;;5046415;28;20142;-62
2024/01/12 04:40:59;;;;;;;68.13;58.65;;;8.90;99.90;;;;;;5046253;28;20045;-61
2024/01/12 04:43:24;;;;;;;65.70;58.55;;;9.10;99.90;;;;;;5045611;28;20061;-62
2024/01/12 04:45:50;;;;;;;70.70;54.17;;;8.90;99.90;;;;;;5044700;28;20044;-61
2024/01/12 04:48:15;;;;;;;75.18;51.83;;;9.10;99.90;;;;;;5045979;28;20045;-63
2024/01/12 04:50:41;;;;;;;67.57;53.13;;;9.40;99.90;;;;;;5045944;28;20044;-62
2024/01/12 04:53:06;;;;;;;67.15;54.10;;;9.50;99.90;;;;;;5045983;28;20041;-61
2024/01/12 04:55:32;;;;;;;72.72;50.45;;;9.60;99.90;;;;;;5044973;28;20052;-61
2024/01/12 04:57:58;;;;;;;69.53;50.20;;;9.60;99.90;;;;;;5031233;28;20094;-63
2024/01/12 05:00:23;;;;;;;67.30;46.95;;;9.60;99.90;;;;;;5045082;28;20057;-62
2024/01/12 05:02:49;;;;;;;64.03;48.58;;;9.80;99.90;;;;;;5045049;28;20534;-62
2024/01/12 05:05:14;;;;;;;71.65;50.25;;;9.80;99.90;;;;;;5044581;28;20041;-60
2024/01/12 05:07:40;;;;;;;68.07;50.40;;;9.80;99.90;;;;;;5044882;28;20036;-62
2024/01/12 05:10:06;;;;;;;61.15;48.10;;;9.90;99.90;;;;;;5045191;28;20597;-61
2024/01/12 05:12:34;;;;;;;67.75;45.72;;;9.80;99.90;;;;;;5044720;28;20064;-62
2024/01/12 05:15:01;;;;;;;54.03;42.10;;;10.00;99.90;;;;;;5045091;28;20049;-61
2024/01/12 05:17:27;;;;;;;74.15;46.65;;;9.90;99.90;;;;;;5023664;28;20510;-62
2024/01/12 05:19:53;;;;;;;72.68;48.92;;;9.90;99.90;;;;;;5025839;28;20073;-62
2024/01/12 05:22:18;;;;;;;68.65;45.35;;;9.90;99.90;;;;;;5038582;28;20044;-62
2024/01/12 05:24:44;;;;;;;65.78;44.28;;;9.90;99.90;;;;;;5035532;28;20040;-61
2024/01/12 05:27:09;;;;;;;58.05;42.60;;;10.10;99.90;;;;;;5045343;28;20090;-62
2024/01/12 05:29:35;;;;;;;70.38;43.22;;;10.00;99.90;;;;;;5045192;28;20045;-61
2024/01/12 05:32:01;;;;;;;68.72;43.05;;;10.00;99.90;;;;;;5044940;28;20049;-62
2024/01/12 05:34:27;;;;;;;63.10;41.50;;;10.00;99.90;;;;;;5045418;28;20064;-61
2024/01/12 05:36:53;;;;;;;57.45;43.25;;;10.00;99.90;;;;;;5044458;28;20414;-61
2024/01/12 05:39:18;;;;;;;53.90;42.28;;;10.10;99.90;;;;;;5044412;28;20102;-62
2024/01/12 05:41:44;;;;;;;51.65;41.40;;;10.00;99.90;;;;;;5043205;28;20045;-62
2024/01/12 05:44:09;;;;;;;62.90;41.50;;;10.00;99.90;;;;;;5045243;28;20919;-62
2024/01/12 05:46:35;;;;;;;46.92;37.88;;;10.10;99.90;;;;;;5044773;28;20071;-60
2024/01/12 05:49:04;;;;;;;51.92;38.67;;;10.40;99.90;;;;;;5043337;28;20083;-61
2024/01/12 05:51:30;;;;;;;57.72;39.05;;;10.40;99.90;;;;;;5044474;28;20499;-62
2024/01/12 05:53:55;;;;;;;42.97;32.97;;;10.40;99.90;;;;;;5042887;28;20106;-62
2024/01/12 05:56:21;;;;;;;46.40;34.47;;;10.60;99.90;;;;;;5044765;28;20045;-62
2024/01/12 05:58:46;;;;;;;40.85;36.35;;;10.40;99.90;;;;;;5045466;28;20089;-63
2024/01/12 06:01:12;;;;;;;47.35;36.33;;;10.60;99.90;;;;;;5045124;28;20507;-62
2024/01/12 06:03:37;;;;;;;37.15;33.30;;;10.70;99.90;;;;;;5045345;28;20517;-62
2024/01/12 06:06:04;;;;;;;39.10;33.58;;;10.80;99.90;;;;;;5045530;28;20068;-61
2024/01/12 06:08:29;;;;;;;45.60;33.00;;;10.70;98.90;;;;;;5044264;28;20604;-62
2024/01/12 06:10:55;;;;;;;37.90;33.90;;;10.90;94.70;;;;;;5044626;28;20065;-62
2024/01/12 06:13:20;;;;;;;41.83;33.58;;;10.80;91.10;;;;;;5044664;28;20037;-61
2024/01/12 06:15:46;;;;;;;57.78;39.38;;;10.90;85.70;;;;;;5045498;28;20094;-62
2024/01/12 06:18:11;;;;;;;43.45;33.08;;;10.90;80.60;;;;;;5048698;28;20398;-62
2024/01/12 06:20:37;;;;;;;41.88;33.33;;;10.70;71.00;;;;;;5048881;28;20045;-62
2024/01/12 06:23:03;;;;;;;48.53;36.05;;;10.80;64.10;;;;;;5048181;28;20044;-62
2024/01/12 06:25:36;;;;;;;48.85;33.75;;;10.60;58.70;;;;;;5047200;28;20086;-62
2024/01/12 06:28:02;;;;;;;53.22;32.58;;;10.50;55.00;;;;;;5047337;28;20556;-62
2024/01/12 06:30:28;;;;;;;46.95;34.25;;;10.40;53.70;;;;;;5047962;28;20041;-61
2024/01/12 06:32:56;;;;;;;42.50;34.47;;;10.40;54.80;;;;;;5047769;28;20506;-62
2024/01/12 06:35:22;;;;;;;44.38;35.05;;;10.40;52.60;;;;;;5047178;28;20048;-62
2024/01/12 06:37:48;;;;;;;45.97;37.22;;;10.40;54.60;;;;;;5058862;28;20083;-62
2024/01/12 06:40:13;;;;;;;42.60;34.47;;;10.40;52.60;;;;;;5048237;28;20049;-62
2024/01/12 06:42:39;;;;;;;52.25;35.47;;;10.40;50.20;;;;;;5047910;28;20095;-62
2024/01/12 06:45:07;;;;;;;37.25;32.25;;;10.50;49.80;;;;;;5046576;28;20045;-62
2024/01/12 06:47:33;;;;;;;44.25;33.45;;;10.50;48.20;;;;;;5047933;28;20414;-61
2024/01/12 06:50:00;;;;;;;50.17;35.50;;;10.40;48.10;;;;;;5047259;28;20048;-61
2024/01/12 06:52:25;;;;;;;43.65;33.83;;;10.40;48.00;;;;;;5045384;28;20067;-62
2024/01/12 06:54:51;;;;;;;37.55;31.63;;;10.60;49.40;;;;;;5045910;28;20033;-61
2024/01/12 06:57:17;;;;;;;41.90;28.25;;;10.60;49.10;;;;;;5047413;28;20050;-62
2024/01/12 06:59:43;;;;;;;38.55;25.98;;;10.60;43.90;;;;;;5028101;28;20735;-61
2024/01/12 07:02:09;;;;;;;40.50;26.88;;;10.90;35.30;;;;;;5038533;28;20041;-62
2024/01/12 07:04:35;;;;;;;32.25;26.20;;;11.00;28.00;;;;;;5036955;28;20141;-62
2024/01/12 07:07:01;;;;;;;33.05;27.52;;;11.10;21.60;;;;;;5036942;28;20129;-61
2024/01/12 07:09:27;;;;;;;29.73;26.45;;;11.00;17.70;;;;;;5038802;28;20591;-61
2024/01/12 07:11:53;;;;;;;31.42;27.33;;;11.00;14.30;;;;;;5036511;28;20041;-63
2024/01/12 07:14:22;;;;;;;38.60;28.20;;;11.10;13.70;;;;;;5036046;28;20106;-62
2024/01/12 07:16:47;;;;;;;41.80;29.70;;;12.40;12.70;;;;;;5025572;28;20139;-62
2024/01/12 07:19:13;;;;;;;38.17;30.77;;;11.00;11.70;;;;;;5044714;28;20123;-62
2024/01/12 07:21:39;;;;;;;44.10;31.75;;;11.10;19.50;;;;;;5044712;28;20487;-63
2024/01/12 07:24:05;;;;;;;42.72;31.60;;;10.90;10.50;;;;;;5044811;28;20041;-63
2024/01/12 07:26:30;;;;;;;43.70;33.38;;;10.80;10.40;;;;;;5043681;28;20384;-62
2024/01/12 07:28:57;;;;;;;42.53;31.08;;;11.00;9.50;;;;;;5044184;28;20037;-62
2024/01/12 07:31:23;;;;;;;43.38;32.42;;;10.80;9.40;;;;;;5043144;28;20052;-61
2024/01/12 07:33:49;;;;;;;52.70;35.33;;;10.80;10.40;;;;;;5044200;28;20040;-64
2024/01/12 07:36:14;;;;;;;45.42;34.90;;;10.90;11.10;;;;;;5045100;28;20053;-62
2024/01/12 07:38:40;;;;;;;37.88;33.78;;;10.70;11.00;;;;;;5042713;28;20044;-62
2024/01/12 07:41:17;;;;;;;43.58;33.45;;;10.60;12.70;;;;;;5044491;28;20041;-64
2024/01/12 07:43:43;;;;;;;49.25;34.78;;;10.70;13.70;;;;;;5042417;28;20037;-63
2024/01/12 07:46:14;;;;;;;51.10;35.28;;;10.70;15.00;;;;;;5045838;28;20573;-63
2024/01/12 07:48:40;;;;;;;45.00;35.50;;;10.70;15.40;;;;;;5044091;28;20041;-63
2024/01/12 07:51:05;;;;;;;52.78;41.63;;;10.50;16.50;;;;;;5043365;28;20047;-63
2024/01/12 07:53:31;;;;;;;55.88;38.65;;;10.40;17.80;;;;;;5042739;28;20040;-63
2024/01/12 07:55:56;;;;;;;54.53;38.83;;;10.40;18.70;;;;;;5042826;28;20528;-63
2024/01/12 07:58:22;;;;;;;51.05;39.60;;;10.50;20.80;;;;;;5041877;28;20120;-64
2024/01/12 08:00:48;;;;;;;44.42;37.45;;;10.50;22.40;;;;;;5038729;28;20057;-64
2024/01/12 08:03:14;;;;;;;58.33;39.47;;;10.50;23.70;;;;;;5043584;28;20056;-62
2024/01/12 08:05:40;;;;;;;55.47;37.42;;;10.50;24.90;;;;;;5041897;28;20546;-62
2024/01/12 08:08:05;;;;;;;60.13;39.65;;;10.40;26.30;;;;;;5045516;28;20654;-64
2024/01/12 08:10:31;;;;;;;52.85;43.20;;;10.40;28.30;;;;;;5044067;28;20033;-63
2024/01/12 08:12:56;;;;;;;54.50;42.95;;;10.30;29.50;;;;;;5041729;28;20171;-63
2024/01/12 08:15:22;;;;;;;65.57;45.60;;;10.30;32.30;;;;;;5045256;28;20128;-63
2024/01/12 08:17:48;;;;;;;70.97;41.80;;;10.20;36.80;;;;;;5044079;28;20052;-63
2024/01/12 08:20:13;;;;;;;59.25;39.58;;;10.40;41.90;;;;;;5044101;28;20045;-63
2024/01/12 08:22:39;;;;;;;64.13;42.85;;;10.20;45.10;;;;;;5044468;28;20043;-62
2024/01/12 08:25:05;;;;;;;67.53;39.38;;;10.80;50.30;;;;;;5043425;28;20111;-64
2024/01/12 08:27:30;;;;;;;45.50;35.65;;;10.40;53.70;;;;;;5042223;28;20136;-63
2024/01/12 08:29:56;;;;;;;52.13;37.30;;;10.30;55.30;;;;;;5042119;28;20578;-63
2024/01/12 08:32:22;;;;;;;55.30;37.38;;;10.40;57.20;;;;;;5039917;28;20380;-63
2024/01/12 08:34:48;;;;;;;45.55;35.83;;;10.30;58.70;;;;;;5044380;28;20041;-63
2024/01/12 08:37:13;;;;;;;61.42;37.67;;;10.40;57.50;;;;;;5039736;28;20033;-62
2024/01/12 08:39:39;;;;;;;48.03;37.10;;;10.30;52.10;;;;;;5043460;28;20049;-63
2024/01/12 08:42:05;;;;;;;45.90;40.25;;;10.40;54.60;;;;;;5043295;28;20041;-63
2024/01/12 08:44:31;;;;;;;54.38;43.33;;;10.40;60.50;;;;;;5045708;28;20037;-63
2024/01/12 08:46:56;;;;;;;54.70;43.90;;;10.50;65.10;;;;;;5044131;28;20712;-62
2024/01/12 08:49:22;;;;;;;57.38;43.08;;;10.50;68.40;;;;;;5045152;28;20040;-63
2024/01/12 08:51:48;;;;;;;63.03;42.08;;;10.50;71.60;;;;;;5039016;28;20041;-63
2024/01/12 08:54:14;;;;;;;59.17;39.33;;;10.40;74.10;;;;;;5055685;28;20044;-63
2024/01/12 08:56:41;;;;;;;63.58;43.88;;;10.50;80.40;;;;;;5043302;28;20087;-64
2024/01/12 08:59:08;;;;;;;56.45;39.60;;;10.40;80.10;;;;;;5042769;28;20081;-63
2024/01/12 09:01:34;;;;;;;56.78;40.08;;;10.50;81.40;;;;;;5019027;28;20414;-63
2024/01/12 09:04:01;;;;;;;59.35;40.13;;;10.40;83.50;;;;;;5045068;28;20128;-63
2024/01/12 09:06:27;;;;;;;62.30;41.83;;;10.50;86.20;;;;;;5041579;28;20076;-63
2024/01/12 09:08:53;;;;;;;54.55;40.40;;;10.50;87.50;;;;;;5042254;28;20479;-63
2024/01/12 09:11:19;;;;;;;49.13;41.25;;;10.50;88.20;;;;;;5032187;28;20037;-62
2024/01/12 09:13:44;;;;;;;59.20;40.88;;;10.40;88.20;;;;;;5043496;28;20553;-63
2024/01/12 09:16:10;;;;;;;56.65;39.63;;;10.30;87.50;;;;;;5040182;28;20582;-63
2024/01/12 09:18:37;;;;;;;63.15;41.63;;;10.50;86.00;;;;;;5039725;28;20045;-63
2024/01/12 09:21:03;;;;;;;54.90;41.35;;;10.50;86.00;;;;;;5055530;28;20151;-64
2024/01/12 09:23:28;;;;;;;64.70;45.10;;;10.50;83.80;;;;;;5044718;28;20195;-63
2024/01/12 09:25:54;;;;;;;55.03;38.33;;;10.60;84.10;;;;;;5042088;28;20051;-62
2024/01/12 09:28:20;;;;;;;51.67;37.90;;;10.40;81.60;;;;;;5025149;28;20163;-63
2024/01/12 09:30:46;;;;;;;49.05;39.78;;;10.50;79.60;;;;;;5041977;28;20406;-63
2024/01/12 09:33:12;;;;;;;64.60;38.42;;;10.40;81.10;;;;;;5044103;28;20049;-63
2024/01/12 09:35:38;;;;;;;54.80;40.53;;;10.40;82.00;;;;;;5041502;28;20178;-63
2024/01/12 09:38:03;;;;;;;59.15;41.97;;;10.40;86.80;;;;;;5043873;28;20123;-63
2024/01/12 09:40:29;;;;;;;62.03;46.92;;;10.60;90.70;;;;;;5041905;28;20198;-63
2024/01/12 09:42:57;;;;;;;67.22;47.25;;;10.60;94.30;;;;;;5043539;28;20044;-62
2024/01/12 09:45:23;;;;;;;71.97;48.05;;;10.50;98.50;;;;;;5043340;28;20119;-63
2024/01/12 09:47:49;;;;;;;70.32;48.03;;;10.60;99.90;;;;;;5043500;28;20043;-63
2024/01/12 09:50:16;;;;;;;62.03;48.67;;;10.60;99.90;;;;;;5026040;28;20036;-63
2024/01/12 09:52:41;;;;;;;64.68;50.60;;;10.50;99.90;;;;;;5045613;28;20052;-63
2024/01/12 09:55:07;;;;;;;74.30;50.40;;;10.50;99.90;;;;;;5047017;28;20041;-63
2024/01/12 09:57:36;;;;;;;60.28;46.63;;;10.50;99.90;;;;;;5043510;28;20052;-63
2024/01/12 10:00:05;;;;;;;65.65;47.53;;;10.40;99.90;;;;;;5044363;28;20056;-63
2024/01/12 10:02:31;;;;;;;64.10;49.35;;;10.60;99.90;;;;;;5046139;28;20076;-63
2024/01/12 10:04:56;;;;;;;67.25;47.42;;;10.50;99.90;;;;;;5046555;28;20029;-64
2024/01/12 10:07:22;;;;;;;78.13;49.80;;;10.60;99.90;;;;;;5046794;28;20044;-63
2024/01/12 10:09:47;;;;;;;71.68;46.90;;;10.40;99.90;;;;;;5047462;28;20896;-62
2024/01/12 10:12:13;;;;;;;62.13;51.15;;;10.60;99.90;;;;;;5046047;28;20509;-63
2024/01/12 10:15:02;;;;;;;64.90;46.80;;;10.60;99.90;;;;;;5045846;28;20490;-62
2024/01/12 10:17:28;;;;;;;62.60;47.63;;;10.40;99.90;;;;;;5046827;28;20076;-63
2024/01/12 10:19:55;;;;;;;73.10;51.10;;;10.50;99.90;;;;;;5046073;28;20131;-62
2024/01/12 10:22:21;;;;;;;69.30;51.17;;;10.60;99.90;;;;;;5043614;28;20545;-63
2024/01/12 10:24:46;;;;;;;66.32;50.63;;;10.30;99.90;;;;;;5047637;28;20043;-62
2024/01/12 10:27:13;;;;;;;64.05;45.83;;;10.30;99.90;;;;;;5044157;28;20130;-62
2024/01/12 10:29:39;;;;;;;53.95;48.13;;;10.60;99.90;;;;;;5046899;28;20037;-63
2024/01/12 10:32:06;;;;;;;75.07;51.00;;;10.60;99.90;;;;;;5041685;28;20045;-63
2024/01/12 10:34:33;;;;;;;69.93;50.00;;;10.60;99.90;;;;;;5047849;28;20406;-62
2024/01/12 10:36:59;;;;;;;69.97;51.97;;;10.60;99.90;;;;;;5043657;28;20776;-62
2024/01/12 10:39:27;;;;;;;68.15;53.35;;;10.50;99.90;;;;;;5044495;28;20052;-63
2024/01/12 10:41:56;;;;;;;70.95;53.72;;;10.50;99.90;;;;;;5045625;28;20049;-63
2024/01/12 10:44:27;;;;;;;73.57;52.35;;;10.40;99.90;;;;;;5043326;28;20049;-63
2024/01/12 10:46:58;;;;;;;69.35;52.00;;;11.00;99.90;;;;;;5042958;28;20487;-63
2024/01/12 10:49:25;;;;;;;76.47;53.13;;;10.30;99.90;;;;;;5044555;28;20450;-63
2024/01/12 10:52:25;;;;;;;76.38;53.30;;;10.60;99.90;;;;;;5046586;28;20033;-63
2024/01/12 10:55:03;;;;;;;66.63;53.28;;;10.50;99.90;;;;;;5037542;28;20705;-62
2024/01/12 10:57:30;;;;;;;76.20;52.42;;;10.40;99.90;;;;;;5044609;28;20037;-62
2024/01/12 10:59:57;;;;;;;68.05;51.83;;;10.40;99.90;;;;;;5043358;28;20465;-64
2024/01/12 11:02:23;;;;;;;67.35;52.05;;;11.60;99.90;;;;;;5045280;28;20487;-63
2024/01/12 11:04:50;;;;;;;62.90;49.60;;;10.80;99.90;;;;;;5044579;28;20480;-64
2024/01/12 11:07:17;;;;;;;58.47;45.15;;;10.60;99.90;;;;;;5045127;28;20037;-64
2024/01/12 11:09:43;;;;;;;53.78;47.58;;;10.80;99.90;;;;;;5045461;28;20033;-64
2024/01/12 11:12:30;;;;;;;56.20;45.97;;;10.70;99.90;;;;;;5040286;28;20071;-64
2024/01/12 11:14:56;;;;;;;61.88;46.30;;;10.70;99.90;;;;;;5038087;28;20048;-64
2024/01/12 11:17:29;;;;;;;65.28;47.08;;;10.90;99.90;;;;;;5042753;28;20457;-64
2024/01/12 11:20:19;;;;;;;76.38;49.28;;;10.90;99.90;;;;;;5040999;28;20057;-64
2024/01/12 11:22:47;;;;;;;59.72;47.95;;;10.70;99.90;;;;;;5045204;28;20514;-63
2024/01/12 11:25:14;;;;;;;64.53;47.75;;;10.80;99.90;;;;;;5044089;28;20063;-64
2024/01/12 11:27:41;;;;;;;56.97;46.67;;;10.90;99.90;;;;;;5045350;28;20562;-63
2024/01/12 11:30:09;;;;;;;64.35;47.83;;;10.90;99.90;;;;;;5045996;28;20056;-64
2024/01/12 11:32:35;;;;;;;65.32;49.42;;;10.80;99.90;;;;;;5046713;28;20041;-64
2024/01/12 11:35:18;;;;;;;70.10;48.45;;;10.80;99.90;;;;;;5045510;28;20045;-64
2024/01/12 11:38:09;;;;;;;62.42;48.97;;;10.90;99.90;;;;;;5042256;28;20044;-64
2024/01/12 11:40:35;;;;;;;73.05;51.42;;;10.60;1.00;;;;;;5040667;28;20131;-64
2024/01/12 11:43:02;;;;;;;68.53;52.53;;;10.20;1.00;;;;;;5042261;28;20489;-64
2024/01/12 11:45:32;;;;;;;60.85;49.78;;;10.70;1.00;;;;;;5043335;28;20067;-63
2024/01/12 11:48:02;;;;;;;61.97;48.78;;;11.00;1.00;;;;;;5040868;28;20529;-64
2024/01/12 11:50:27;;;;;;;52.58;46.63;;;10.90;1.00;;;;;;5022945;28;20834;-63
2024/01/12 11:53:00;;;;;;;58.15;47.50;;;11.00;1.00;;;;;;5044653;28;20044;-63
2024/01/12 11:55:26;;;;;;;64.75;47.53;;;11.10;1.00;;;;;;5044841;28;20119;-63
2024/01/12 11:57:53;;;;;;;58.63;49.83;;;11.10;1.00;;;;;;5044758;28;20041;-67
2024/01/12 12:00:20;;;;;;;59.55;46.03;;;11.00;1.00;;;;;;5043973;28;20053;-67
2024/01/12 12:02:50;;;;;;;57.97;44.83;;;10.80;1.00;;;;;;5040893;28;20044;-67
2024/01/12 12:05:16;;;;;;;60.97;45.30;;;11.00;1.00;;;;;;5045363;28;20534;-68
2024/01/12 12:07:41;;;;;;;59.55;47.50;;;10.70;1.00;;;;;;5044535;28;20044;-64
2024/01/12 12:10:09;;;;;;;60.28;49.30;;;10.80;1.00;;;;;;5044823;28;20524;-64
2024/01/12 12:12:35;;;;;;;62.97;49.13;;;10.90;1.00;;;;;;5041446;28;20037;-64
2024/01/12 12:15:08;;;;;;;60.22;48.15;;;10.90;1.00;;;;;;5044929;28;20041;-64
2024/01/12 12:17:43;;;;;;;56.60;46.75;;;10.90;1.00;;;;;;5055587;28;20059;-63
2024/01/12 12:20:11;;;;;;;57.63;43.50;;;11.20;1.00;;;;;;5045640;28;20036;-64
2024/01/12 12:22:46;;;;;;;50.92;44.70;;;10.90;1.00;;;;;;5044514;28;20453;-63
2024/01/12 12:25:16;;;;;;;54.43;47.40;;;11.20;1.00;;;;;;5042225;28;20123;-64
2024/01/12 12:27:44;;;;;;;54.30;46.33;;;11.10;16.90;;;;;;5042826;28;20143;-63